createdAt,value
2023-01-04T00:01:37.986Z,2.80
2023-01-04T00:04:10.179Z,2.80
2023-01-04T00:06:42.007Z,2.80
2023-01-04T00:09:13.812Z,2.70
2023-01-04T00:11:45.606Z,2.70
2023-01-04T00:14:18.758Z,2.60
2023-01-04T00:16:50.636Z,2.60
2023-01-04T00:19:24.869Z,2.50
2023-01-04T00:21:59.127Z,2.50
2023-01-04T00:24:30.884Z,2.50
2023-01-04T00:27:02.733Z,2.40
2023-01-04T00:29:34.496Z,2.40
2023-01-04T00:32:06.302Z,2.40
2023-01-04T00:34:40.208Z,2.40
2023-01-04T00:37:12.016Z,2.30
2023-01-04T00:39:43.764Z,2.30
2023-01-04T00:42:15.587Z,2.30
2023-01-04T00:44:47.339Z,2.20
2023-01-04T00:47:22.246Z,2.20
2023-01-04T00:49:54.016Z,2.20
2023-01-04T00:52:28.052Z,2.20
2023-01-04T00:54:59.810Z,2.20
2023-01-04T00:57:31.656Z,2.20
2023-01-04T01:00:04.226Z,2.20
2023-01-04T01:02:36.191Z,2.10
2023-01-04T01:05:08.243Z,2.10
2023-01-04T01:07:40.053Z,2.10
2023-01-04T01:10:11.791Z,2.10
2023-01-04T01:12:43.623Z,2.10
2023-01-04T01:15:15.384Z,2.00
2023-01-04T01:17:47.227Z,2.00
2023-01-04T01:20:21.424Z,1.90
2023-01-04T01:22:53.224Z,1.90
2023-01-04T01:25:25.001Z,1.80
2023-01-04T01:27:56.830Z,1.80
2023-01-04T01:30:28.661Z,1.80
2023-01-04T01:33:00.627Z,1.70
2023-01-04T01:35:32.916Z,1.70
2023-01-04T01:38:07.187Z,1.70
2023-01-04T01:40:42.161Z,1.60
2023-01-04T01:43:18.300Z,1.60
2023-01-04T01:45:51.419Z,1.50
2023-01-04T01:48:25.738Z,1.40
2023-01-04T01:51:00.155Z,1.40
2023-01-04T01:53:34.324Z,1.30
2023-01-04T01:56:06.950Z,1.30
2023-01-04T01:58:41.340Z,1.30
2023-01-04T02:01:15.715Z,1.30
2023-01-04T02:03:47.694Z,1.20
2023-01-04T02:06:22.564Z,1.20
2023-01-04T02:08:54.581Z,1.20
2023-01-04T02:11:26.544Z,1.10
2023-01-04T02:14:17.487Z,1.10
2023-01-04T02:16:49.201Z,1.10
2023-01-04T02:19:24.094Z,1.00
2023-01-04T02:22:14.594Z,1.00
2023-01-04T02:24:55.416Z,0.90
2023-01-04T02:27:36.100Z,0.90
2023-01-04T02:30:13.654Z,0.90
2023-01-04T02:32:52.105Z,0.90
2023-01-04T02:35:40.307Z,0.90
2023-01-04T02:38:12.067Z,0.90
2023-01-04T02:40:49.720Z,0.90
2023-01-04T02:43:40.245Z,0.90
2023-01-04T02:46:17.674Z,0.90
2023-01-04T02:49:08.087Z,0.90
2023-01-04T02:51:40.079Z,0.90
2023-01-04T02:54:17.223Z,0.80
2023-01-04T02:57:05.622Z,0.80
2023-01-04T02:59:56.585Z,0.80
2023-01-04T03:02:53.290Z,0.80
2023-01-04T03:05:46.773Z,0.90
2023-01-04T03:08:24.513Z,0.90
2023-01-04T03:11:27.400Z,0.90
2023-01-04T03:14:31.696Z,0.90
2023-01-04T03:16:57.202Z,0.90
2023-01-04T03:19:49.168Z,0.90
2023-01-04T03:22:42.380Z,0.80
2023-01-04T03:25:34.412Z,0.80
2023-01-04T03:28:29.212Z,0.80
2023-01-04T03:31:39.642Z,0.80
2023-01-04T03:34:30.340Z,0.80
2023-01-04T03:37:07.443Z,0.80
2023-01-04T03:39:57.718Z,0.80
2023-01-04T03:43:00.293Z,0.80
2023-01-04T03:45:58.912Z,0.80
2023-01-04T03:48:38.952Z,0.80
2023-01-04T03:51:16.503Z,0.80
2023-01-04T03:53:51.840Z,0.80
2023-01-04T03:56:24.497Z,0.80
2023-01-04T03:58:56.338Z,0.90
2023-01-04T04:01:28.633Z,0.90
2023-01-04T04:04:19.213Z,0.90
2023-01-04T04:07:09.459Z,0.90
2023-01-04T04:09:41.202Z,0.90
2023-01-04T04:12:13.273Z,0.90
2023-01-04T04:14:45.019Z,0.90
2023-01-04T04:17:19.382Z,0.90
2023-01-04T04:19:51.115Z,1.00
2023-01-04T04:22:22.977Z,1.00
2023-01-04T04:24:54.767Z,1.00
2023-01-04T04:27:26.675Z,1.00
2023-01-04T04:29:58.449Z,1.00
2023-01-04T04:32:30.209Z,0.90
2023-01-04T04:35:02.031Z,1.00
2023-01-04T04:37:34.738Z,0.90
2023-01-04T04:40:06.892Z,0.90
2023-01-04T04:42:38.673Z,0.90
2023-01-04T04:45:10.684Z,0.90
2023-01-04T04:47:42.532Z,0.90
2023-01-04T04:50:14.330Z,0.90
2023-01-04T04:52:50.991Z,0.90
2023-01-04T04:55:25.940Z,0.90
2023-01-04T04:57:57.759Z,0.90
2023-01-04T05:00:29.513Z,0.90
2023-01-04T05:03:02.109Z,1.00
2023-01-04T05:05:33.977Z,1.00
2023-01-04T05:08:05.838Z,1.00
2023-01-04T05:10:38.467Z,1.00
2023-01-04T05:13:13.196Z,1.00
2023-01-04T05:15:46.848Z,1.10
2023-01-04T05:18:19.801Z,1.00
2023-01-04T05:20:51.582Z,1.00
2023-01-04T05:23:23.488Z,1.10
2023-01-04T05:26:04.377Z,1.00
2023-01-04T05:28:36.194Z,1.10
2023-01-04T05:31:08.011Z,1.00
2023-01-04T05:33:39.818Z,1.10
2023-01-04T05:36:11.609Z,1.10
2023-01-04T05:38:43.432Z,1.10
2023-01-04T05:41:33.810Z,1.10
2023-01-04T05:44:05.634Z,1.10
2023-01-04T05:46:37.455Z,1.10
2023-01-04T05:49:09.232Z,1.10
2023-01-04T05:51:43.083Z,1.10
2023-01-04T05:54:20.874Z,1.10
2023-01-04T05:56:53.130Z,1.10
2023-01-04T05:59:27.036Z,1.10
2023-01-04T06:01:58.897Z,1.10
2023-01-04T06:04:30.843Z,1.10
2023-01-04T06:07:02.761Z,1.20
2023-01-04T06:09:34.578Z,1.20
2023-01-04T06:12:06.481Z,1.20
2023-01-04T06:14:38.336Z,1.20
2023-01-04T06:17:12.897Z,1.20
2023-01-04T06:19:47.159Z,1.20
2023-01-04T06:22:19.547Z,1.20
2023-01-04T06:24:53.764Z,1.20
2023-01-04T06:27:25.569Z,1.30
2023-01-04T06:29:59.752Z,1.30
2023-01-04T06:32:31.504Z,1.30
2023-01-04T06:35:03.617Z,1.30
2023-01-04T06:37:36.118Z,1.30
2023-01-04T06:40:08.444Z,1.30
2023-01-04T06:42:45.673Z,1.40
2023-01-04T06:45:17.631Z,1.30
2023-01-04T06:47:49.402Z,1.40
2023-01-04T06:50:21.251Z,1.40
2023-01-04T06:52:53.004Z,1.40
2023-01-04T06:55:24.868Z,1.40
2023-01-04T06:57:59.709Z,1.50
2023-01-04T07:00:31.703Z,1.50
2023-01-04T07:03:14.092Z,1.50
2023-01-04T07:05:47.940Z,1.60
2023-01-04T07:08:19.909Z,1.60
2023-01-04T07:10:51.872Z,1.60
2023-01-04T07:13:23.621Z,1.60
2023-01-04T07:15:55.533Z,1.60
2023-01-04T07:18:27.370Z,1.70
2023-01-04T07:20:59.255Z,1.70
2023-01-04T07:23:31.032Z,1.70
2023-01-04T07:26:03.386Z,1.70
2023-01-04T07:28:58.299Z,1.70
2023-01-04T07:31:30.187Z,1.70
2023-01-04T07:34:06.858Z,1.70
2023-01-04T07:36:38.818Z,1.70
2023-01-04T07:39:12.537Z,1.70
2023-01-04T07:41:47.331Z,1.80
2023-01-04T07:44:19.143Z,1.80
2023-01-04T07:46:53.560Z,1.80
2023-01-04T07:49:25.379Z,1.90
2023-01-04T07:51:57.210Z,1.90
2023-01-04T07:54:28.955Z,2.00
2023-01-04T07:57:00.766Z,2.00
2023-01-04T07:59:34.629Z,2.00
2023-01-04T08:02:06.523Z,2.00
2023-01-04T08:04:40.689Z,2.00
2023-01-04T08:07:13.565Z,2.00
2023-01-04T08:09:45.388Z,2.00
2023-01-04T08:12:17.205Z,2.00
2023-01-04T08:14:49.706Z,2.00
2023-01-04T08:17:21.659Z,1.90
2023-01-04T08:19:55.886Z,1.90
2023-01-04T08:22:29.811Z,1.90
2023-01-04T08:25:01.604Z,1.90
2023-01-04T08:27:33.501Z,1.90
2023-01-04T08:30:07.668Z,1.90
2023-01-04T08:32:42.343Z,2.00
2023-01-04T08:35:14.182Z,2.00
2023-01-04T08:37:45.982Z,2.00
2023-01-04T08:40:17.843Z,2.00
2023-01-04T08:42:49.669Z,2.00
2023-01-04T08:45:21.404Z,2.00
2023-01-04T08:47:53.239Z,2.00
2023-01-04T08:50:25.079Z,2.10
2023-01-04T08:52:56.931Z,2.10
2023-01-04T08:55:28.811Z,2.10
2023-01-04T08:58:01.111Z,2.10
2023-01-04T09:00:33.019Z,2.10
2023-01-04T09:03:05.791Z,2.20
2023-01-04T09:05:37.802Z,2.20
2023-01-04T09:08:09.658Z,2.20
2023-01-04T09:10:41.579Z,2.20
2023-01-04T09:13:13.470Z,2.30
2023-01-04T09:15:45.273Z,2.30
2023-01-04T09:18:33.162Z,2.30
2023-01-04T09:21:09.232Z,2.30
2023-01-04T09:23:41.373Z,2.30
2023-01-04T09:26:23.127Z,2.30
2023-01-04T09:28:56.130Z,2.40
2023-01-04T09:31:28.723Z,2.40
2023-01-04T09:34:17.712Z,2.40
2023-01-04T09:36:50.524Z,2.40
2023-01-04T09:39:26.390Z,2.50
2023-01-04T09:41:59.155Z,2.50
2023-01-04T09:44:54.911Z,2.50
2023-01-04T09:47:24.845Z,2.50
2023-01-04T09:49:56.608Z,2.50
2023-01-04T09:52:34.471Z,2.50
2023-01-04T09:55:37.249Z,2.60
2023-01-04T09:58:14.173Z,2.60
2023-01-04T10:00:51.536Z,2.60
2023-01-04T10:03:45.977Z,2.60
2023-01-04T10:06:17.905Z,2.70
2023-01-04T10:08:49.740Z,2.70
2023-01-04T10:11:36.083Z,2.70
2023-01-04T10:14:07.844Z,2.80
2023-01-04T10:23:07.681Z,2.80
2023-01-04T10:25:46.016Z,2.80
2023-01-04T10:28:36.348Z,2.80
2023-01-04T10:31:38.707Z,2.80
2023-01-04T10:34:05.989Z,2.80
2023-01-04T10:36:37.845Z,2.80
2023-01-04T10:39:16.554Z,2.80
2023-01-04T10:41:54.729Z,2.80
2023-01-04T10:44:46.280Z,2.80
2023-01-04T10:47:26.724Z,2.80
2023-01-04T10:50:01.180Z,2.80
2023-01-04T10:52:41.196Z,2.70
2023-01-04T10:55:28.650Z,2.70
2023-01-04T10:58:07.169Z,2.70
2023-01-04T11:00:43.217Z,2.70
2023-01-04T11:03:28.363Z,2.70
2023-01-04T11:06:10.464Z,2.70
2023-01-04T11:08:48.227Z,2.70
2023-01-04T11:11:30.056Z,2.70
2023-01-04T11:14:01.968Z,2.70
2023-01-04T11:16:36.962Z,2.70
2023-01-04T11:19:11.549Z,2.80
2023-01-04T11:21:47.902Z,2.70
2023-01-04T11:24:31.870Z,2.80
2023-01-04T11:27:06.248Z,2.80
2023-01-04T11:29:42.369Z,2.80
2023-01-04T11:32:17.242Z,2.80
2023-01-04T11:34:53.340Z,2.80
2023-01-04T11:37:25.206Z,2.80
2023-01-04T11:40:18.358Z,2.80
2023-01-04T11:43:10.672Z,2.80
2023-01-04T11:45:52.594Z,2.90
2023-01-04T11:48:33.539Z,2.90
2023-01-04T11:51:06.062Z,2.90
2023-01-04T11:53:38.131Z,3.00
2023-01-04T11:56:09.957Z,3.00
2023-01-04T11:58:43.136Z,3.00
2023-01-04T12:01:22.748Z,3.00
2023-01-04T12:03:58.454Z,3.10
2023-01-04T12:06:30.210Z,3.00
2023-01-04T12:09:02.415Z,3.00
2023-01-04T12:11:39.957Z,3.10
2023-01-04T12:14:32.703Z,3.10
2023-01-04T12:17:13.022Z,3.10
2023-01-04T12:19:45.807Z,3.10
2023-01-04T12:22:20.328Z,3.10
2023-01-04T12:25:00.081Z,3.10
2023-01-04T12:27:32.539Z,3.10
2023-01-04T12:30:06.061Z,3.20
2023-01-04T12:32:39.346Z,3.10
2023-01-04T12:35:37.504Z,3.20
2023-01-04T12:38:10.013Z,3.20
2023-01-04T12:40:45.022Z,3.20
2023-01-04T12:43:16.774Z,3.20
2023-01-04T12:46:08.866Z,3.20
2023-01-04T12:48:59.137Z,3.20
2023-01-04T12:51:33.009Z,3.30
2023-01-04T12:54:06.309Z,3.30
2023-01-04T12:57:07.258Z,3.20
2023-01-04T12:59:52.498Z,3.30
2023-01-04T13:02:26.298Z,3.30
2023-01-04T13:07:58.081Z,3.30
2023-01-04T13:10:32.024Z,3.30
2023-01-04T13:13:16.080Z,3.30
2023-01-04T13:15:50.301Z,3.30
2023-01-04T13:18:41.960Z,3.40
2023-01-04T13:21:15.873Z,3.40
2023-01-04T13:23:50.156Z,3.40
2023-01-04T13:26:34.995Z,3.40
2023-01-04T13:29:25.370Z,3.40
2023-01-04T13:32:00.038Z,3.40
2023-01-04T13:34:33.666Z,3.40
2023-01-04T13:37:13.915Z,3.40
2023-01-04T13:39:50.132Z,3.40
2023-01-04T13:42:25.892Z,3.30
2023-01-04T13:45:20.865Z,3.40
2023-01-04T13:47:57.070Z,3.40
2023-01-04T13:50:44.380Z,3.40
2023-01-04T13:53:20.819Z,3.40
2023-01-04T13:55:53.812Z,3.40
2023-01-04T13:58:26.831Z,3.40
2023-01-04T14:01:01.741Z,3.50
2023-01-04T14:03:39.009Z,3.50
2023-01-04T14:06:13.361Z,3.50
2023-01-04T14:08:56.676Z,3.50
2023-01-04T14:11:53.286Z,3.50
2023-01-04T14:14:40.263Z,3.50
2023-01-04T14:17:18.334Z,3.50
2023-01-04T14:19:52.040Z,3.60
2023-01-04T14:22:26.671Z,3.60
2023-01-04T14:25:15.060Z,3.60
2023-01-04T14:27:46.920Z,3.60
2023-01-04T14:30:18.763Z,3.60
2023-01-04T14:32:53.659Z,3.60
2023-01-04T14:35:26.388Z,3.70
2023-01-04T14:38:05.756Z,3.70
2023-01-04T14:40:38.572Z,3.70
2023-01-04T14:43:28.911Z,3.70
2023-01-04T14:46:00.757Z,3.80
2023-01-04T14:48:32.561Z,3.80
2023-01-04T14:51:07.330Z,3.80
2023-01-04T14:53:39.231Z,3.80
2023-01-04T14:56:12.320Z,3.90
2023-01-04T14:58:44.874Z,3.90
2023-01-04T15:01:19.035Z,4.00
2023-01-04T15:03:51.042Z,4.00
2023-01-04T15:06:23.070Z,4.10
2023-01-04T15:08:54.957Z,4.10
2023-01-04T15:11:26.757Z,4.10
2023-01-04T15:13:58.592Z,4.20
2023-01-04T15:16:30.435Z,4.20
2023-01-04T15:19:02.333Z,4.30
2023-01-04T15:21:40.401Z,4.30
2023-01-04T15:24:12.974Z,4.30
2023-01-04T15:26:44.855Z,4.40
2023-01-04T15:29:16.790Z,4.40
2023-01-04T15:31:48.639Z,4.40
2023-01-04T15:34:23.145Z,4.40
2023-01-04T15:36:55.164Z,4.40
2023-01-04T15:39:29.375Z,4.50
2023-01-04T15:42:19.839Z,4.50
2023-01-04T15:44:53.939Z,4.50
2023-01-04T15:47:25.838Z,4.60
2023-01-04T15:49:57.678Z,4.60
2023-01-04T15:52:29.513Z,4.60
2023-01-04T15:55:01.469Z,4.60
2023-01-04T15:57:35.340Z,4.60
2023-01-04T16:00:10.843Z,4.70
2023-01-04T16:02:44.908Z,4.70
2023-01-04T16:05:17.273Z,4.70
2023-01-04T16:07:49.134Z,4.70
2023-01-04T16:10:21.080Z,4.70
2023-01-04T16:12:56.729Z,4.80
2023-01-04T16:15:28.963Z,4.80
2023-01-04T16:18:00.766Z,4.80
2023-01-04T16:20:32.583Z,4.80
2023-01-04T16:23:04.373Z,4.80
2023-01-04T16:25:36.261Z,4.90
2023-01-04T16:28:08.998Z,4.90
2023-01-04T16:30:40.988Z,4.90
2023-01-04T16:33:13.488Z,4.90
2023-01-04T16:35:45.322Z,4.90
2023-01-04T16:38:19.201Z,5.00
2023-01-04T16:41:01.245Z,5.00
2023-01-04T16:43:35.516Z,5.00
2023-01-04T16:46:13.235Z,5.10
2023-01-04T16:48:48.557Z,5.10
2023-01-04T16:51:20.597Z,5.10
2023-01-04T16:53:53.967Z,5.10
2023-01-04T16:56:26.161Z,5.10
2023-01-04T16:59:00.889Z,5.10
2023-01-04T17:01:34.084Z,5.20
2023-01-04T17:04:09.001Z,5.20
2023-01-04T17:06:42.114Z,5.20
2023-01-04T17:09:15.110Z,5.30
2023-01-04T17:12:46.200Z,5.30
2023-01-04T17:15:07.964Z,5.30
2023-01-04T17:17:40.752Z,5.30
2023-01-04T17:20:12.707Z,5.30
2023-01-04T17:22:44.724Z,5.40
2023-01-04T17:25:16.693Z,5.40
2023-01-04T17:27:48.605Z,5.40
2023-01-04T17:30:23.449Z,5.40
2023-01-04T17:32:55.295Z,5.50
2023-01-04T17:35:29.453Z,5.50
2023-01-04T17:38:01.409Z,5.50
2023-01-04T17:40:33.263Z,5.60
2023-01-04T17:43:07.498Z,5.60
2023-01-04T17:45:40.032Z,5.60
2023-01-04T17:48:11.895Z,5.60
2023-01-04T17:50:43.685Z,5.70
2023-01-04T17:53:17.872Z,5.70
2023-01-04T17:55:49.723Z,5.70
2023-01-04T17:58:24.007Z,5.80
2023-01-04T18:00:55.829Z,5.80
2023-01-04T18:03:30.149Z,5.80
2023-01-04T18:06:24.247Z,5.90
2023-01-04T18:08:55.119Z,5.90
2023-01-04T18:11:26.953Z,5.90
2023-01-04T18:13:58.939Z,6.00
2023-01-04T18:16:30.820Z,6.00
2023-01-04T18:19:02.799Z,6.00
2023-01-04T18:21:34.800Z,6.10
2023-01-04T18:27:21.037Z,6.10
2023-01-04T18:29:54.035Z,6.20
2023-01-04T18:32:26.645Z,6.20
2023-01-04T18:34:58.502Z,6.30
2023-01-04T18:37:30.320Z,6.30
2023-01-04T18:40:05.399Z,6.30
2023-01-04T18:42:37.388Z,6.40
2023-01-04T18:45:11.452Z,6.40
2023-01-04T18:47:47.564Z,6.40
2023-01-04T18:50:21.505Z,6.50
2023-01-04T18:52:53.797Z,6.50
2023-01-04T18:55:25.616Z,6.60
2023-01-04T18:57:57.460Z,6.60
2023-01-04T19:00:30.028Z,6.60
2023-01-04T19:03:02.026Z,6.70
2023-01-04T19:05:33.988Z,6.70
2023-01-04T19:08:05.815Z,6.70
2023-01-04T19:10:37.675Z,6.70
2023-01-04T19:13:11.843Z,6.80
2023-01-04T19:15:47.840Z,6.80
2023-01-04T19:18:19.839Z,6.80
2023-01-04T19:20:51.811Z,6.90
2023-01-04T19:23:23.586Z,6.90
2023-01-04T19:25:55.523Z,6.90
2023-01-04T19:28:27.343Z,7.00
2023-01-04T19:30:59.244Z,7.00
2023-01-04T19:33:31.062Z,7.00
2023-01-04T19:36:05.732Z,7.00
2023-01-04T19:38:37.659Z,7.10
2023-01-04T19:41:13.779Z,7.10
2023-01-04T19:43:45.549Z,7.10
2023-01-04T19:46:17.963Z,7.20
2023-01-04T19:48:49.816Z,7.20
2023-01-04T19:51:24.422Z,7.20
2023-01-04T19:53:56.645Z,7.30
2023-01-04T19:56:28.508Z,7.30
2023-01-04T19:59:02.730Z,7.30
2023-01-04T20:01:34.717Z,7.40
2023-01-04T20:04:11.375Z,7.40
2023-01-04T20:06:43.296Z,7.40
2023-01-04T20:09:15.272Z,7.50
2023-01-04T20:11:47.166Z,7.50
2023-01-04T20:14:19.132Z,7.60
2023-01-04T20:16:51.161Z,7.60
2023-01-04T20:19:23.107Z,7.60
2023-01-04T20:21:54.955Z,7.70
2023-01-04T20:24:29.702Z,7.70
2023-01-04T20:27:04.273Z,7.70
2023-01-04T20:29:36.960Z,7.70
2023-01-04T20:32:08.819Z,7.80
2023-01-04T20:34:41.007Z,7.80
2023-01-04T20:37:13.074Z,7.80
2023-01-04T20:39:44.930Z,7.90
2023-01-04T20:42:35.422Z,7.90
2023-01-04T20:45:07.575Z,7.90
2023-01-04T20:47:39.512Z,7.90
2023-01-04T20:50:13.504Z,7.90
2023-01-04T20:52:46.041Z,8.00
2023-01-04T20:55:18.076Z,8.00
2023-01-04T20:57:52.417Z,8.00
2023-01-04T21:00:25.447Z,8.10
2023-01-04T21:02:57.459Z,8.00
2023-01-04T21:05:29.537Z,8.00
2023-01-04T21:08:01.691Z,8.00
2023-01-04T21:10:34.699Z,8.00
2023-01-04T21:13:07.081Z,8.00
2023-01-04T21:15:39.680Z,8.00
2023-01-04T21:18:11.943Z,8.00
2023-01-04T21:20:46.565Z,8.00
2023-01-04T21:23:19.977Z,8.00
2023-01-04T21:25:53.065Z,8.00
2023-01-04T21:28:27.070Z,8.00
2023-01-04T21:30:59.010Z,7.90
2023-01-04T21:33:34.113Z,8.00
2023-01-04T21:36:14.978Z,7.90
2023-01-04T21:38:51.632Z,7.90
2023-01-04T21:41:26.312Z,7.90
2023-01-04T21:43:58.341Z,7.90
2023-01-04T21:46:30.201Z,7.90
2023-01-04T21:49:02.203Z,7.90
2023-01-04T21:51:34.499Z,7.90
2023-01-04T21:54:06.485Z,7.90
2023-01-04T21:56:38.330Z,7.90
2023-01-04T21:59:10.171Z,7.90
2023-01-04T22:01:42.846Z,7.90
2023-01-04T22:04:14.892Z,8.00
2023-01-04T22:06:46.700Z,8.00
2023-01-04T22:09:18.591Z,8.00
2023-01-04T22:11:50.942Z,8.00
2023-01-04T22:14:22.793Z,8.00
2023-01-04T22:16:54.604Z,8.00
2023-01-04T22:19:26.555Z,8.10
2023-01-04T22:21:58.417Z,8.10
2023-01-04T22:24:34.075Z,8.10
2023-01-04T22:27:09.398Z,8.10
2023-01-04T22:29:41.305Z,8.10
2023-01-04T22:32:13.086Z,8.10
2023-01-04T22:34:44.927Z,8.10
2023-01-04T22:37:16.706Z,8.10
2023-01-04T22:39:48.540Z,8.00
2023-01-04T22:42:20.338Z,8.00
2023-01-04T22:44:52.747Z,8.10
2023-01-04T22:47:24.621Z,8.10
2023-01-04T22:49:56.445Z,8.10
2023-01-04T22:52:28.217Z,8.10
2023-01-04T22:55:00.033Z,8.10
2023-01-04T22:57:34.308Z,8.10
2023-01-04T23:00:06.534Z,8.10
2023-01-04T23:02:38.333Z,8.10
2023-01-04T23:05:11.681Z,8.10
2023-01-04T23:07:43.591Z,8.10
2023-01-04T23:10:15.405Z,8.10
2023-01-04T23:12:47.192Z,8.10
2023-01-04T23:15:19.045Z,8.10
2023-01-04T23:17:50.863Z,8.10
2023-01-04T23:20:22.848Z,8.10
2023-01-04T23:22:56.692Z,8.10
2023-01-04T23:25:28.500Z,8.10
2023-01-04T23:28:00.302Z,8.10
2023-01-04T23:30:32.142Z,8.10
2023-01-04T23:33:03.952Z,8.10
2023-01-04T23:35:38.659Z,8.00
2023-01-04T23:38:10.408Z,8.10
2023-01-04T23:40:46.859Z,8.00
2023-01-04T23:43:18.699Z,8.00
2023-01-04T23:45:50.504Z,8.00
2023-01-04T23:48:22.335Z,8.00
2023-01-04T23:50:57.542Z,8.00
2023-01-04T23:53:29.381Z,8.00
2023-01-04T23:56:05.692Z,8.00
2023-01-04T23:58:37.498Z,8.00
